Time;durP1;ratioP1;P1;durP2;ratioP2;P2;SDS_P1;SDS_P2;PMS_P1;PMS_P2;Temp;Humidity;BMP_temperature;BMP_pressure;BME280_temperature;BME280_humidity;BME280_pressure;Samples;Min_cycle;Max_cycle;Signal;HPM_P1;HPM_P2
2023/09/02 00:00:39;;;;;;;8.85;7.15;;;;;;;15.55;89.92;101101.91;7397473;19;20010;-66
2023/09/02 00:03:07;;;;;;;8.93;8.02;;;;;;;15.52;89.73;101101.13;7395574;19;20010;-67
2023/09/02 00:05:35;;;;;;;9.63;8.20;;;;;;;15.47;89.88;101091.59;7397416;19;20035;-66
2023/09/02 00:08:04;;;;;;;9.98;7.82;;;;;;;15.44;90.02;101096.13;7395230;19;20028;-67
2023/09/02 00:10:32;;;;;;;8.60;7.70;;;;;;;15.39;90.31;101096.31;7395328;19;20015;-67
2023/09/02 00:13:04;;;;;;;9.00;7.47;;;;;;;15.35;90.28;101094.69;7394894;19;20074;-66
2023/09/02 00:15:32;;;;;;;10.18;8.38;;;;;;;15.31;90.64;101093.94;7395016;19;20348;-67
2023/09/02 00:18:01;;;;;;;10.57;8.32;;;;;;;15.27;90.97;101094.97;7397038;19;20078;-67
2023/09/02 00:20:29;;;;;;;8.15;7.35;;;;;;;15.24;90.95;101100.38;7395820;19;20490;-67
2023/09/02 00:22:58;;;;;;;12.70;8.60;;;;;;;15.22;90.92;101107.50;7394626;19;20425;-66
2023/09/02 00:25:26;;;;;;;9.77;8.77;;;;;;;15.19;91.09;101112.00;7395029;19;20015;-66
2023/09/02 00:27:55;;;;;;;9.48;8.38;;;;;;;15.15;91.43;101106.84;7396424;19;20074;-66
2023/09/02 00:30:26;;;;;;;9.55;8.68;;;;;;;15.11;91.54;101113.16;7395597;19;20077;-66
2023/09/02 00:32:55;;;;;;;11.05;8.88;;;;;;;15.08;91.75;101104.47;7395225;19;20014;-66
2023/09/02 00:35:23;;;;;;;9.57;7.63;;;;;;;15.05;91.53;101110.72;7396069;19;20498;-66
2023/09/02 00:37:52;;;;;;;9.05;8.15;;;;;;;15.01;91.87;101103.81;7396359;19;20074;-68
2023/09/02 00:40:22;;;;;;;8.77;7.78;;;;;;;14.98;92.11;101101.28;7396223;19;20027;-66
2023/09/02 00:42:53;;;;;;;9.55;8.60;;;;;;;14.95;91.76;101104.91;7396302;19;20094;-66
2023/09/02 00:45:22;;;;;;;9.65;8.20;;;;;;;14.92;91.94;101104.97;7396230;19;20368;-67
2023/09/02 00:47:54;;;;;;;8.60;7.70;;;;;;;14.91;92.30;101107.69;7394418;19;20083;-66
2023/09/02 00:50:22;;;;;;;12.73;7.72;;;;;;;14.86;92.01;101106.97;7394843;19;20010;-66
2023/09/02 00:52:51;;;;;;;7.85;7.03;;;;;;;14.82;92.33;101106.22;7395276;19;20015;-66
2023/09/02 00:55:20;;;;;;;8.70;7.03;;;;;;;14.77;92.00;101116.97;7394237;19;20014;-66
2023/09/02 00:57:49;;;;;;;9.85;9.05;;;;;;;14.74;92.46;101122.31;7395653;19;20011;-65
2023/09/02 01:00:17;;;;;;;10.20;8.15;;;;;;;14.71;92.71;101116.28;7395742;19;20023;-66
2023/09/02 01:02:48;;;;;;;9.32;8.43;;;;;;;14.68;92.81;101117.25;7395365;19;20027;-66
2023/09/02 01:05:19;;;;;;;9.35;8.20;;;;;;;14.64;92.66;101112.94;7395865;19;20018;-66
2023/09/02 01:07:48;;;;;;;9.05;8.15;;;;;;;14.61;92.77;101113.06;7395183;19;20010;-66
2023/09/02 01:10:17;;;;;;;12.38;8.30;;;;;;;14.57;93.14;101120.22;7393641;19;20078;-66
2023/09/02 01:12:46;;;;;;;10.52;8.57;;;;;;;14.55;93.16;101113.25;7394375;19;20086;-66
2023/09/02 01:15:14;;;;;;;9.55;8.55;;;;;;;14.52;93.00;101119.50;7395234;19;20074;-65
2023/09/02 01:17:42;;;;;;;11.95;7.75;;;;;;;14.48;93.08;101110.81;7395266;19;20018;-65
2023/09/02 01:20:14;;;;;;;9.43;7.35;;;;;;;14.45;93.10;101112.69;7394258;19;20023;-65
2023/09/02 01:23:18;;;;;;;9.38;7.82;;;;;;;14.43;93.27;101120.66;7393051;19;20070;-65
2023/09/02 01:26:13;;;;;;;8.38;7.57;;;;;;;14.40;93.11;101118.09;7394617;19;20473;-65
2023/09/02 01:28:48;;;;;;;8.32;7.55;;;;;;;14.36;93.20;101119.13;7395489;19;20015;-66
2023/09/02 01:31:19;;;;;;;10.77;8.00;;;;;;;14.33;93.38;101120.09;7393370;19;20014;-66
2023/09/02 01:33:52;;;;;;;9.82;7.30;;;;;;;14.31;93.34;101121.03;7394108;19;20019;-66
2023/09/02 01:36:24;;;;;;;8.52;7.57;;;;;;;14.29;93.53;101122.84;7393509;19;20060;-66
2023/09/02 01:38:55;;;;;;;9.70;7.60;;;;;;;14.26;93.51;101128.25;7394484;19;20019;-65
2023/09/02 01:41:24;;;;;;;8.05;7.10;;;;;;;14.23;93.58;101117.75;7394334;19;20494;-66
2023/09/02 01:43:56;;;;;;;8.55;7.60;;;;;;;14.20;93.51;101125.78;7393094;19;20508;-65
2023/09/02 01:46:25;;;;;;;10.73;7.90;;;;;;;14.16;93.65;101128.50;7394876;19;20082;-66
2023/09/02 01:48:54;;;;;;;8.68;7.60;;;;;;;14.14;93.70;101132.09;7394438;19;20090;-66
2023/09/02 01:51:23;;;;;;;8.85;7.95;;;;;;;14.11;93.76;101132.22;7392847;19;20014;-65
2023/09/02 01:53:51;;;;;;;9.43;7.50;;;;;;;14.08;93.60;101130.53;7393126;19;20014;-65
2023/09/02 01:56:21;;;;;;;7.70;6.85;;;;;;;14.06;93.77;101134.13;7394213;19;20010;-65
2023/09/02 01:58:50;;;;;;;9.85;7.55;;;;;;;14.02;93.64;101141.25;7392209;19;20035;-65
2023/09/02 02:01:21;;;;;;;9.77;8.75;;;;;;;14.00;93.92;101148.34;7394052;19;20078;-65
2023/09/02 02:03:57;;;;;;;11.30;7.95;;;;;;;13.96;93.99;101137.06;7392449;19;20070;-65
2023/09/02 02:06:26;;;;;;;8.40;7.68;;;;;;;13.94;94.14;101143.25;7394562;19;20031;-65
2023/09/02 02:09:00;;;;;;;10.32;8.10;;;;;;;13.91;94.16;101144.22;7401380;19;20010;-65
2023/09/02 02:11:31;;;;;;;9.23;7.97;;;;;;;13.88;94.65;101144.31;7398801;19;20034;-66
2023/09/02 02:14:03;;;;;;;8.98;8.18;;;;;;;13.87;94.90;101149.63;7399287;19;20010;-64
2023/09/02 02:16:35;;;;;;;8.75;7.88;;;;;;;13.83;94.96;101157.63;7398468;19;20015;-65
2023/09/02 02:19:03;;;;;;;11.35;8.48;;;;;;;13.81;94.95;101148.91;7401619;19;20023;-66
2023/09/02 02:21:35;;;;;;;9.80;8.13;;;;;;;13.79;95.33;101163.03;7398789;19;20010;-66
2023/09/02 02:24:03;;;;;;;8.50;7.70;;;;;;;13.75;95.47;101156.09;7399211;19;20074;-65
2023/09/02 02:26:32;;;;;;;8.30;7.50;;;;;;;13.71;95.77;101165.91;7398132;19;20023;-65
2023/09/02 02:29:00;;;;;;;8.98;8.18;;;;;;;13.69;95.81;101162.44;7400273;19;20414;-66
2023/09/02 02:31:29;;;;;;;9.35;8.13;;;;;;;13.67;95.98;101167.75;7398320;19;20007;-64
2023/09/02 02:34:00;;;;;;;10.18;7.97;;;;;;;13.66;95.86;101159.88;7399060;19;20031;-65
2023/09/02 02:36:28;;;;;;;8.13;7.32;;;;;;;13.66;96.20;101159.88;7398458;19;20018;-63
2023/09/02 02:38:57;;;;;;;8.13;7.40;;;;;;;13.63;95.90;101160.81;7400372;19;20086;-65
2023/09/02 02:41:25;;;;;;;8.60;7.80;;;;;;;13.61;96.01;101162.66;7400083;19;20031;-65
2023/09/02 02:43:54;;;;;;;9.52;7.30;;;;;;;13.61;96.11;101164.41;7397210;19;20014;-65
2023/09/02 02:46:23;;;;;;;8.23;7.43;;;;;;;13.59;96.28;101176.78;7399773;19;20027;-65
2023/09/02 02:48:51;;;;;;;9.15;7.63;;;;;;;13.57;96.05;101175.94;7400001;19;20018;-66
2023/09/02 02:51:22;;;;;;;8.50;7.60;;;;;;;13.53;96.02;101175.16;7398398;19;20019;-66
2023/09/02 02:53:51;;;;;;;10.05;8.80;;;;;;;13.51;96.29;101183.13;7398745;19;20075;-66
2023/09/02 02:56:20;;;;;;;9.45;8.52;;;;;;;13.49;96.32;101189.34;7399781;19;20073;-66
2023/09/02 02:58:48;;;;;;;17.58;8.70;;;;;;;13.47;96.29;101185.88;7399232;19;20355;-66
2023/09/02 03:01:17;;;;;;;9.85;8.85;;;;;;;13.45;96.58;101192.97;7401586;19;20113;-66
2023/09/02 03:03:46;;;;;;;26.08;7.97;;;;;;;13.42;96.73;101183.38;7397864;19;20090;-66
2023/09/02 03:06:19;;;;;;;13.43;8.48;;;;;;;13.38;96.57;101197.53;7399069;19;20359;-66
2023/09/02 03:08:50;;;;;;;17.25;9.32;;;;;;;13.36;96.87;101191.41;7396707;19;20038;-66
2023/09/02 03:11:25;;;;;;;10.57;8.93;;;;;;;13.33;96.91;101192.34;7396500;19;20014;-66
2023/09/02 03:13:55;;;;;;;14.25;8.23;;;;;;;13.32;97.20;101195.88;7396916;19;20019;-66
2023/09/02 03:16:24;;;;;;;13.10;7.70;;;;;;;13.29;97.09;101193.31;7397036;19;20017;-66
2023/09/02 03:18:52;;;;;;;16.33;7.38;;;;;;;13.27;97.24;101189.88;7397796;19;20086;-66
2023/09/02 03:21:21;;;;;;;9.05;7.75;;;;;;;13.24;97.18;101189.94;7397287;19;20086;-66
2023/09/02 03:23:52;;;;;;;9.57;7.70;;;;;;;13.20;96.97;101199.72;7396639;19;20018;-66
2023/09/02 03:26:24;;;;;;;13.63;6.97;;;;;;;13.17;97.09;101198.94;7399267;19;20042;-66
2023/09/02 03:28:53;;;;;;;9.80;7.10;;;;;;;13.13;96.98;101208.66;7399181;19;20010;-66
2023/09/02 03:31:21;;;;;;;10.57;6.53;;;;;;;13.09;96.96;101206.13;7397453;19;20022;-65
2023/09/02 03:33:50;;;;;;;11.05;6.90;;;;;;;13.07;97.06;101205.31;7396910;19;20419;-65
2023/09/02 03:36:19;;;;;;;21.85;15.02;;;;;;;13.02;97.05;101208.91;7398381;19;20035;-66
2023/09/02 03:38:48;;;;;;;22.23;15.50;;;;;;;12.99;97.06;101206.38;7396271;19;20011;-66
2023/09/02 03:41:20;;;;;;;15.18;8.23;;;;;;;12.96;97.18;101209.06;7398251;19;20473;-66
2023/09/02 03:43:49;;;;;;;7.20;6.50;;;;;;;12.94;96.81;101210.00;7397124;19;20014;-66
2023/09/02 03:46:18;;;;;;;9.32;6.38;;;;;;;12.89;96.99;101223.31;7397845;19;20073;-66
2023/09/02 03:48:48;;;;;;;6.53;5.93;;;;;;;12.85;96.91;101226.91;7397952;19;20079;-65
2023/09/02 03:51:17;;;;;;;11.00;6.95;;;;;;;12.83;96.72;101223.44;7395844;19;20078;-65
2023/09/02 03:53:46;;;;;;;7.38;6.68;;;;;;;12.78;96.93;101218.28;7395818;19;20015;-66
2023/09/02 03:56:15;;;;;;;6.93;6.32;;;;;;;12.74;96.70;101216.63;7397761;19;20414;-65
2023/09/02 03:58:46;;;;;;;6.82;6.22;;;;;;;12.71;96.81;101214.06;7397665;19;20018;-65
2023/09/02 04:01:14;;;;;;;7.25;6.53;;;;;;;12.70;96.82;101215.84;7397986;19;20035;-65
2023/09/02 04:03:43;;;;;;;6.85;6.15;;;;;;;12.67;96.72;101212.41;7396410;19;20112;-66
2023/09/02 04:06:11;;;;;;;6.38;5.78;;;;;;;12.64;96.72;101209.84;7395439;19;20031;-67
2023/09/02 04:08:40;;;;;;;6.18;5.60;;;;;;;12.62;96.76;101219.53;7396724;19;20038;-66
2023/09/02 04:11:08;;;;;;;6.00;5.47;;;;;;;12.60;96.65;101218.69;7395132;19;20069;-66
2023/09/02 04:13:37;;;;;;;5.63;5.20;;;;;;;12.57;96.60;101224.03;7396391;19;20120;-67
2023/09/02 04:16:09;;;;;;;6.18;5.68;;;;;;;12.55;96.79;101238.09;7397117;19;20027;-67
2023/09/02 04:18:38;;;;;;;6.35;5.60;;;;;;;12.52;96.89;101246.06;7397437;19;20013;-67
2023/09/02 04:21:08;;;;;;;6.30;5.80;;;;;;;12.51;96.65;101246.97;7394776;19;20035;-67
2023/09/02 04:23:37;;;;;;;6.07;5.57;;;;;;;12.51;96.70;101251.34;7396075;19;20019;-67
2023/09/02 04:26:06;;;;;;;6.82;6.22;;;;;;;12.49;96.74;101258.44;7395468;19;20024;-67
2023/09/02 04:28:34;;;;;;;6.25;5.63;;;;;;;12.49;96.71;101256.66;7398398;19;20014;-67
2023/09/02 04:31:03;;;;;;;5.55;5.05;;;;;;;12.47;96.77;101258.47;7395077;19;20031;-66
2023/09/02 04:33:34;;;;;;;6.28;5.68;;;;;;;12.46;96.80;101256.72;7396412;19;20058;-67
2023/09/02 04:36:03;;;;;;;6.00;5.43;;;;;;;12.47;96.74;101260.22;7396068;19;20074;-66
2023/09/02 04:38:31;;;;;;;5.57;5.07;;;;;;;12.49;96.71;101261.06;7396070;19;20386;-66
2023/09/02 04:41:04;;;;;;;6.45;4.60;;;;;;;12.50;96.84;101265.44;7395789;19;20477;-66
2023/09/02 04:43:32;;;;;;;9.32;6.70;;;;;;;12.51;96.70;101272.41;7394104;19;20014;-67
2023/09/02 04:46:04;;;;;;;14.90;10.85;;;;;;;12.52;96.57;101268.88;7395655;19;20473;-66
2023/09/02 04:48:35;;;;;;;5.82;5.32;;;;;;;12.55;96.83;101272.31;7394860;19;20011;-66
2023/09/02 04:51:05;;;;;;;4.82;4.43;;;;;;;12.55;96.73;101274.94;7395081;19;20506;-66
2023/09/02 04:53:33;;;;;;;5.40;4.88;;;;;;;12.58;96.59;101286.31;7394772;19;20481;-66
2023/09/02 04:56:03;;;;;;;5.25;4.75;;;;;;;12.60;96.69;101285.38;7395801;19;20081;-66
2023/09/02 04:58:31;;;;;;;5.57;5.07;;;;;;;12.62;96.72;101283.56;7395399;19;20014;-66
2023/09/02 05:01:09;;;;;;;5.60;5.20;;;;;;;12.64;96.50;101287.03;7395601;19;20034;-66
2023/09/02 05:03:41;;;;;;;9.40;7.80;;;;;;;12.66;96.72;101282.63;7393944;19;20011;-66
2023/09/02 05:06:10;;;;;;;14.82;12.38;;;;;;;12.69;96.99;101293.06;7395747;19;20418;-66
2023/09/02 05:08:36;;;;;;;7.93;7.22;;;;;;;12.73;96.80;101282.50;7393102;19;20013;-66
2023/09/02 05:11:04;;;;;;;9.60;8.60;;;;;;;12.77;96.83;101286.78;7394787;19;20014;-66
2023/09/02 05:13:33;;;;;;;6.70;6.20;;;;;;;12.80;96.98;101279.69;7393990;19;20492;-66
2023/09/02 05:16:01;;;;;;;8.40;7.60;;;;;;;12.85;96.77;101290.09;7394617;19;20486;-66
2023/09/02 05:18:36;;;;;;;14.35;12.60;;;;;;;12.88;97.04;101288.25;7395026;19;20027;-66
2023/09/02 05:21:07;;;;;;;20.88;17.10;;;;;;;12.93;96.75;101284.66;7394742;19;20120;-66
2023/09/02 05:23:36;;;;;;;11.48;10.32;;;;;;;12.98;96.84;101290.72;7393439;19;20028;-70
2023/09/02 05:26:04;;;;;;;9.13;8.32;;;;;;;13.01;96.91;101294.09;7394421;19;20015;-66
2023/09/02 05:28:33;;;;;;;8.43;7.45;;;;;;;13.07;96.84;101295.75;7394919;19;20087;-66
2023/09/02 05:31:02;;;;;;;8.18;7.47;;;;;;;13.11;96.82;101294.75;7394399;19;20019;-66
2023/09/02 05:33:30;;;;;;;7.88;7.18;;;;;;;13.16;96.93;101297.31;7393747;19;20030;-66
2023/09/02 05:35:59;;;;;;;8.43;7.55;;;;;;;13.20;96.95;101299.84;7393908;19;20469;-66
2023/09/02 05:38:30;;;;;;;9.80;8.18;;;;;;;13.24;97.00;101297.97;7394358;19;20042;-66
2023/09/02 05:40:59;;;;;;;9.32;8.52;;;;;;;13.28;97.06;101301.41;7392738;19;20007;-66
2023/09/02 05:43:28;;;;;;;8.82;7.93;;;;;;;13.32;97.14;101303.94;7399370;19;20502;-66
2023/09/02 05:46:01;;;;;;;9.70;8.65;;;;;;;13.39;97.26;101303.81;7401367;19;20419;-66
2023/09/02 05:48:30;;;;;;;10.48;8.95;;;;;;;13.41;97.05;101308.16;7401290;19;20007;-66
2023/09/02 05:50:59;;;;;;;10.77;9.15;;;;;;;13.49;96.97;101315.88;7401773;19;20030;-66
2023/09/02 05:53:30;;;;;;;11.45;10.35;;;;;;;13.55;97.34;101314.84;7398466;19;20010;-67
2023/09/02 05:55:59;;;;;;;10.90;9.90;;;;;;;13.59;97.20;101319.16;7399134;19;20021;-66
2023/09/02 05:58:28;;;;;;;10.73;9.63;;;;;;;13.64;96.98;101318.09;7401575;19;20022;-66
2023/09/02 06:00:58;;;;;;;11.20;10.20;;;;;;;13.70;96.79;101325.00;7401429;19;20065;-66
2023/09/02 06:03:27;;;;;;;11.25;10.10;;;;;;;13.77;96.97;101325.72;7400410;19;20014;-66
2023/09/02 06:05:55;;;;;;;11.57;10.43;;;;;;;13.84;96.78;101335.22;7401010;19;20010;-66
2023/09/02 06:08:24;;;;;;;10.93;9.85;;;;;;;13.90;97.01;101332.41;7401034;19;20015;-65
2023/09/02 06:11:02;;;;;;;11.68;10.10;;;;;;;13.98;96.47;101333.06;7397879;19;20019;-66
2023/09/02 06:13:30;;;;;;;11.02;9.98;;;;;;;14.06;96.63;101338.13;7399591;19;20090;-65
2023/09/02 06:16:02;;;;;;;11.65;10.55;;;;;;;14.12;96.55;101337.97;7401506;19;20019;-66
2023/09/02 06:18:31;;;;;;;12.88;11.68;;;;;;;14.21;96.46;101330.72;7400886;19;20064;-65
2023/09/02 06:21:00;;;;;;;12.38;11.20;;;;;;;14.26;96.01;101334.94;7399965;19;20035;-66
2023/09/02 06:23:29;;;;;;;12.13;11.07;;;;;;;14.34;96.20;101338.25;7399934;19;20010;-66
2023/09/02 06:25:58;;;;;;;14.48;11.80;;;;;;;14.42;95.89;101332.75;7398630;19;20010;-66
2023/09/02 06:28:30;;;;;;;14.25;12.75;;;;;;;14.49;95.92;101344.00;7400290;19;20436;-67
2023/09/02 06:30:59;;;;;;;13.10;11.77;;;;;;;14.57;95.41;101349.06;7401005;19;20031;-66
2023/09/02 06:33:27;;;;;;;21.08;16.55;;;;;;;14.64;95.35;101345.34;7397933;19;20035;-65
2023/09/02 06:35:53;;;;;;;13.60;12.25;;;;;;;14.68;95.15;101349.63;7397511;19;20019;-65
2023/09/02 06:38:21;;;;;;;15.60;11.45;;;;;;;14.72;94.77;101355.69;7399861;19;20006;-65
2023/09/02 06:40:50;;;;;;;14.38;11.43;;;;;;;14.75;94.30;101358.28;7400121;19;20031;-65
2023/09/02 06:43:18;;;;;;;18.65;11.27;;;;;;;14.78;94.58;101353.72;7396883;19;20477;-65
2023/09/02 06:45:49;;;;;;;13.40;12.00;;;;;;;14.83;94.45;101370.31;7397843;19;20022;-65
2023/09/02 06:48:18;;;;;;;12.80;11.07;;;;;;;14.89;94.17;101365.78;7397014;19;20066;-66
2023/09/02 06:50:48;;;;;;;15.15;10.70;;;;;;;14.93;93.81;101367.41;7399512;19;20027;-66
2023/09/02 06:53:17;;;;;;;12.85;11.43;;;;;;;14.97;93.54;101374.34;7394808;19;20011;-66
2023/09/02 06:55:45;;;;;;;12.02;10.82;;;;;;;15.01;93.26;101377.75;7399005;19;20022;-66
2023/09/02 06:58:20;;;;;;;12.25;10.43;;;;;;;15.04;93.09;101373.25;7399503;19;20036;-66
2023/09/02 07:00:51;;;;;;;10.27;9.23;;;;;;;15.09;92.97;101379.25;7397242;19;20392;-66
2023/09/02 07:03:19;;;;;;;10.93;9.35;;;;;;;15.14;92.69;101382.63;7397739;19;20015;-66
2023/09/02 07:05:48;;;;;;;10.55;9.57;;;;;;;15.19;92.59;101378.97;7396224;19;20101;-66
2023/09/02 07:08:16;;;;;;;12.02;10.43;;;;;;;15.25;92.09;101382.28;7397432;19;20014;-66
2023/09/02 07:10:45;;;;;;;11.30;10.10;;;;;;;15.32;91.99;101382.97;7398428;19;20015;-66
2023/09/02 07:13:13;;;;;;;12.82;11.57;;;;;;;15.38;92.04;101392.47;7396433;19;20022;-66
2023/09/02 07:15:41;;;;;;;16.38;14.70;;;;;;;15.43;91.70;101394.06;7398095;19;20024;-66
2023/09/02 07:18:12;;;;;;;14.60;13.20;;;;;;;15.50;91.14;101396.50;7398512;19;20090;-67
2023/09/02 07:20:41;;;;;;;17.83;13.82;;;;;;;15.56;90.77;101398.97;7398415;19;20015;-66
2023/09/02 07:23:09;;;;;;;15.63;14.00;;;;;;;15.62;90.35;101409.34;7396906;19;20015;-65
2023/09/02 07:25:38;;;;;;;12.95;10.60;;;;;;;15.69;89.93;101399.44;7398761;19;20033;-65
2023/09/02 07:28:07;;;;;;;11.77;10.40;;;;;;;15.73;89.67;101396.66;7395884;19;20015;-65
2023/09/02 07:30:39;;;;;;;11.27;9.32;;;;;;;15.79;89.01;101400.84;7395948;19;20388;-65
2023/09/02 07:33:08;;;;;;;15.75;11.50;;;;;;;15.85;88.58;101403.31;7397081;19;20011;-65
2023/09/02 07:35:39;;;;;;;15.38;11.23;;;;;;;15.92;88.24;101410.16;7397900;19;20031;-65
2023/09/02 07:38:08;;;;;;;14.05;12.40;;;;;;;15.99;87.61;101408.16;7397685;19;20045;-65
2023/09/02 07:40:37;;;;;;;10.35;8.88;;;;;;;16.06;87.26;101407.03;7398004;19;20079;-66
2023/09/02 07:43:06;;;;;;;12.02;9.90;;;;;;;16.13;86.54;101411.19;7396736;19;20074;-66
2023/09/02 07:45:34;;;;;;;12.57;9.05;;;;;;;16.19;86.19;101411.88;7397565;19;20019;-66
2023/09/02 07:48:02;;;;;;;12.98;9.60;;;;;;;16.27;85.88;101417.78;7397386;19;20014;-66
2023/09/02 07:50:31;;;;;;;13.23;8.82;;;;;;;16.35;85.60;101426.34;7395684;19;20035;-66
2023/09/02 07:53:02;;;;;;;13.55;9.68;;;;;;;16.43;85.21;101426.06;7395732;19;20015;-66
2023/09/02 07:55:31;;;;;;;11.20;8.70;;;;;;;16.53;84.45;101429.22;7397133;19;20491;-66
2023/09/02 07:58:01;;;;;;;9.98;8.60;;;;;;;16.61;83.65;101430.69;7397411;19;20014;-66
2023/09/02 08:00:30;;;;;;;10.43;8.65;;;;;;;16.70;83.22;101432.16;7398471;19;20034;-66
2023/09/02 08:03:00;;;;;;;9.93;8.23;;;;;;;16.80;82.77;101435.31;7396822;19;20033;-66
2023/09/02 08:05:28;;;;;;;10.65;8.05;;;;;;;16.88;82.58;101435.94;7397071;19;20032;-66
2023/09/02 08:07:58;;;;;;;10.35;8.18;;;;;;;16.98;81.71;101441.75;7396626;19;20007;-65
2023/09/02 08:10:29;;;;;;;9.68;7.70;;;;;;;17.07;80.99;101441.44;7396375;19;20031;-64
2023/09/02 08:12:57;;;;;;;9.32;7.55;;;;;;;17.17;80.99;101441.91;7395252;19;20494;-65
2023/09/02 08:15:26;;;;;;;9.40;7.30;;;;;;;17.25;79.99;101441.66;7396816;19;20078;-66
2023/09/02 08:17:54;;;;;;;9.48;6.43;;;;;;;17.31;79.00;101428.13;7395075;19;20021;-65
2023/09/02 08:20:23;;;;;;;8.98;7.72;;;;;;;17.39;78.58;101435.81;7396209;19;20023;-65
2023/09/02 08:22:52;;;;;;;9.98;6.60;;;;;;;17.50;77.86;101438.91;7395291;19;20480;-67
2023/09/02 08:25:20;;;;;;;11.18;6.75;;;;;;;17.61;77.58;101449.06;7396546;19;20018;-66
2023/09/02 08:27:51;;;;;;;9.75;6.63;;;;;;;17.72;76.73;101449.50;7396804;19;20481;-66
2023/09/02 08:30:20;;;;;;;9.75;6.28;;;;;;;17.82;76.63;101452.66;7394382;19;20023;-65
2023/09/02 08:32:48;;;;;;;8.85;6.05;;;;;;;17.90;76.19;101458.47;7395124;19;20091;-66
2023/09/02 08:35:17;;;;;;;7.32;5.72;;;;;;;17.99;75.40;101457.28;7395984;19;20014;-65
2023/09/02 08:37:45;;;;;;;11.05;5.68;;;;;;;18.07;74.67;101460.50;7395789;19;20030;-66
2023/09/02 08:40:14;;;;;;;11.82;5.60;;;;;;;18.16;74.27;101461.00;7393775;19;20380;-66
2023/09/02 08:42:43;;;;;;;7.75;5.75;;;;;;;18.26;74.02;101475.66;7395668;19;20035;-66
2023/09/02 08:45:16;;;;;;;6.97;5.18;;;;;;;18.36;73.04;101468.13;7395831;19;20024;-67
2023/09/02 08:47:47;;;;;;;8.40;5.90;;;;;;;18.45;72.33;101472.19;7394529;19;20035;-66
2023/09/02 08:50:16;;;;;;;6.63;5.03;;;;;;;18.52;71.79;101474.50;7393776;19;20011;-66
2023/09/02 08:52:44;;;;;;;8.15;4.70;;;;;;;18.62;71.31;101474.13;7392891;19;20024;-66
2023/09/02 08:55:13;;;;;;;7.00;4.68;;;;;;;18.71;70.75;101479.03;7394459;19;20482;-65
2023/09/02 08:57:42;;;;;;;7.78;4.78;;;;;;;18.80;69.74;101480.41;7392977;19;20018;-65
2023/09/02 09:00:14;;;;;;;8.70;4.60;;;;;;;18.86;69.32;101481.00;7395354;19;20529;-66
2023/09/02 09:02:43;;;;;;;7.57;4.32;;;;;;;18.95;68.34;101478.91;7395288;19;20014;-65
2023/09/02 09:05:13;;;;;;;6.75;3.70;;;;;;;19.00;67.39;101474.22;7395015;19;20477;-67
2023/09/02 09:07:43;;;;;;;6.68;4.00;;;;;;;19.07;67.09;101481.00;7395395;19;20007;-66
2023/09/02 09:10:13;;;;;;;6.88;3.50;;;;;;;19.14;66.30;101484.25;7395379;19;20015;-65
2023/09/02 09:12:43;;;;;;;4.95;3.53;;;;;;;19.19;65.96;101485.72;7394595;19;20074;-67
2023/09/02 09:15:17;;;;;;;6.60;3.45;;;;;;;19.25;65.96;101484.59;7395260;19;20035;-66
2023/09/02 09:17:46;;;;;;;5.93;4.00;;;;;;;19.32;65.96;101486.06;7394025;19;20031;-66
2023/09/02 09:20:16;;;;;;;8.00;3.70;;;;;;;19.40;65.51;101487.47;7395079;19;20015;-65
2023/09/02 09:22:45;;;;;;;7.13;4.47;;;;;;;19.47;65.17;101487.09;7393068;19;20025;-66
2023/09/02 09:25:14;;;;;;;15.38;10.35;;;;;;;19.54;65.41;101487.69;7394381;19;20018;-66
2023/09/02 09:27:42;;;;;;;10.57;4.78;;;;;;;19.65;64.90;101488.03;7392997;19;20324;-66
2023/09/02 09:30:29;;;;;;;6.18;3.97;;;;;;;19.78;64.42;101495.44;7394879;19;20018;-66
2023/09/02 09:33:04;;;;;;;7.60;4.85;;;;;;;19.87;64.15;101497.69;7393153;19;20011;-66
2023/09/02 09:35:33;;;;;;;5.90;3.95;;;;;;;19.94;63.58;101495.56;7394804;19;20022;-65
2023/09/02 09:38:04;;;;;;;8.30;4.13;;;;;;;20.00;63.36;101497.94;7392491;19;20078;-65
2023/09/02 09:40:33;;;;;;;6.38;3.90;;;;;;;20.07;62.28;101495.81;7394194;19;20486;-66
2023/09/02 09:43:02;;;;;;;4.20;2.80;;;;;;;20.12;60.92;101501.78;7393761;19;20015;-67
2023/09/02 09:45:33;;;;;;;5.07;2.90;;;;;;;20.16;60.13;101498.03;7393772;19;20023;-66
2023/09/02 09:48:11;;;;;;;5.82;3.13;;;;;;;20.21;59.69;101501.34;7394773;19;20006;-66
2023/09/02 09:50:40;;;;;;;6.35;3.47;;;;;;;20.29;60.00;101508.94;7393807;19;20010;-66
2023/09/02 09:53:09;;;;;;;5.25;3.65;;;;;;;20.35;58.56;101512.13;7392171;19;20019;-66
2023/09/02 09:55:39;;;;;;;5.22;3.67;;;;;;;20.41;58.24;101510.97;7394147;19;20077;-65
2023/09/02 09:58:07;;;;;;;8.25;2.97;;;;;;;20.48;57.47;101508.84;7394299;19;20014;-66
2023/09/02 10:00:38;;;;;;;6.28;3.42;;;;;;;20.56;57.19;101509.34;7393924;19;20014;-65
2023/09/02 10:03:08;;;;;;;7.15;2.95;;;;;;;20.67;56.84;101514.97;7393059;19;20006;-65
2023/09/02 10:05:37;;;;;;;7.63;3.30;;;;;;;20.80;57.29;101522.34;7393807;19;20070;-66
2023/09/02 10:08:08;;;;;;;4.68;2.78;;;;;;;20.91;57.13;101521.78;7393656;19;20014;-66
2023/09/02 10:10:39;;;;;;;6.88;3.40;;;;;;;20.99;57.06;101519.56;7393080;19;20011;-67
2023/09/02 10:13:08;;;;;;;7.40;4.00;;;;;;;21.10;57.34;101519.00;7392560;19;20039;-65
2023/09/02 10:15:41;;;;;;;5.55;3.78;;;;;;;21.20;56.15;101520.22;7393113;19;20022;-66
2023/09/02 10:18:09;;;;;;;9.75;3.30;;;;;;;21.26;56.64;101522.56;7393131;19;20015;-65
2023/09/02 10:20:38;;;;;;;7.50;3.30;;;;;;;21.31;56.26;101520.50;7391225;19;20019;-65
2023/09/02 10:23:09;;;;;;;7.90;4.10;;;;;;;21.38;55.72;101515.69;7390806;19;20414;-66
2023/09/02 10:25:47;;;;;;;5.22;2.92;;;;;;;21.47;55.78;101516.97;7391174;19;20027;-66
2023/09/02 10:28:23;;;;;;;8.50;3.33;;;;;;;21.53;55.56;101521.97;7393257;19;20015;-66
2023/09/02 10:30:57;;;;;;;8.70;4.38;;;;;;;21.61;55.01;101513.56;7397451;19;20520;-65
2023/09/02 10:33:34;;;;;;;8.98;3.80;;;;;;;21.72;55.07;101520.97;7398310;19;20352;-66
2023/09/02 10:36:05;;;;;;;5.32;3.15;;;;;;;21.80;53.72;101519.59;7400041;19;20374;-65
2023/09/02 10:38:35;;;;;;;6.63;3.63;;;;;;;21.86;53.30;101528.19;7400060;19;20014;-65
2023/09/02 10:41:13;;;;;;;8.02;4.53;;;;;;;21.89;53.27;101520.88;7399438;19;20014;-66
2023/09/02 10:43:43;;;;;;;8.93;3.55;;;;;;;21.94;52.84;101526.81;7397183;19;20506;-65
2023/09/02 10:46:15;;;;;;;5.88;3.58;;;;;;;22.02;52.89;101520.19;7397272;19;20411;-66
2023/09/02 10:48:46;;;;;;;5.00;2.80;;;;;;;22.12;51.85;101521.38;7399627;19;20477;-65
2023/09/02 10:51:15;;;;;;;5.00;3.15;;;;;;;22.20;51.91;101521.75;7396789;19;20485;-65
2023/09/02 10:54:01;;;;;;;5.28;2.70;;;;;;;22.28;50.41;101526.69;7397028;19;20018;-66
2023/09/02 10:56:31;;;;;;;9.43;2.80;;;;;;;22.34;51.05;101530.78;7399423;19;20046;-64
2023/09/02 10:59:00;;;;;;;6.60;3.03;;;;;;;22.37;50.67;101526.16;7396392;19;20415;-64
2023/09/02 11:01:44;;;;;;;5.28;2.75;;;;;;;22.39;49.96;101524.28;7396148;19;20027;-66
2023/09/02 11:04:13;;;;;;;6.35;2.40;;;;;;;22.39;50.43;101521.59;7397256;19;20014;-66
2023/09/02 11:07:14;;;;;;;6.63;2.78;;;;;;;22.38;49.28;101527.00;7398729;19;20078;-66
2023/09/02 11:09:53;;;;;;;4.63;3.22;;;;;;;22.36;50.42;101528.91;7396076;19;20014;-67
2023/09/02 11:12:22;;;;;;;10.45;2.90;;;;;;;22.36;50.39;101536.91;7398996;19;20109;-65
2023/09/02 11:15:20;;;;;;;6.25;3.70;;;;;;;22.37;50.23;101533.28;7396853;19;20022;-65
2023/09/02 11:17:52;;;;;;;4.22;2.80;;;;;;;22.40;50.67;101535.81;7396378;19;20449;-65
2023/09/02 11:20:29;;;;;;;4.97;3.33;;;;;;;22.45;50.38;101537.25;7398313;19;20011;-65
2023/09/02 11:22:59;;;;;;;4.63;2.38;;;;;;;22.50;50.72;101536.97;7395671;19;20514;-65
2023/09/02 11:25:33;;;;;;;4.95;2.70;;;;;;;22.54;50.52;101534.97;7395998;19;20098;-66
2023/09/02 11:28:03;;;;;;;6.03;2.90;;;;;;;22.59;50.50;101539.09;7398637;19;20127;-65
2023/09/02 11:30:32;;;;;;;6.65;2.88;;;;;;;22.67;50.34;101529.75;7398350;19;20010;-66
2023/09/02 11:33:03;;;;;;;4.38;2.47;;;;;;;22.70;49.77;101535.78;7397722;19;20014;-66
2023/09/02 11:35:34;;;;;;;5.00;2.40;;;;;;;22.71;50.05;101537.50;7397863;19;20024;-65